sensor_id;sensor_type;location;lat;lon;timestamp;P1;durP1;ratioP1;P2;durP2;ratioP2
45684;SDS011;46836;48.388;16.210;2022-10-16T00:00:57;48.42;;;33.40;;
45684;SDS011;46836;48.388;16.210;2022-10-16T00:03:24;47.60;;;31.42;;
45684;SDS011;46836;48.388;16.210;2022-10-16T00:05:58;46.40;;;30.83;;
45684;SDS011;46836;48.388;16.210;2022-10-16T00:08:26;43.78;;;31.67;;
45684;SDS011;46836;48.388;16.210;2022-10-16T00:13:35;45.28;;;31.90;;
45684;SDS011;46836;48.388;16.210;2022-10-16T00:16:06;50.08;;;34.72;;
45684;SDS011;46836;48.388;16.210;2022-10-16T00:18:33;47.72;;;31.85;;
45684;SDS011;46836;48.388;16.210;2022-10-16T00:21:04;51.47;;;33.30;;
45684;SDS011;46836;48.388;16.210;2022-10-16T00:23:37;50.85;;;32.92;;
45684;SDS011;46836;48.388;16.210;2022-10-16T00:26:06;47.58;;;32.70;;
45684;SDS011;46836;48.388;16.210;2022-10-16T00:28:35;47.58;;;33.08;;
45684;SDS011;46836;48.388;16.210;2022-10-16T00:31:04;43.85;;;31.40;;
45684;SDS011;46836;48.388;16.210;2022-10-16T00:33:35;49.15;;;34.38;;
45684;SDS011;46836;48.388;16.210;2022-10-16T00:36:04;41.67;;;30.50;;
45684;SDS011;46836;48.388;16.210;2022-10-16T00:38:32;48.95;;;33.03;;
45684;SDS011;46836;48.388;16.210;2022-10-16T00:40:59;45.05;;;31.30;;
45684;SDS011;46836;48.388;16.210;2022-10-16T00:46:21;47.42;;;33.47;;
45684;SDS011;46836;48.388;16.210;2022-10-16T00:48:54;52.03;;;34.08;;
45684;SDS011;46836;48.388;16.210;2022-10-16T00:51:33;45.67;;;33.30;;
45684;SDS011;46836;48.388;16.210;2022-10-16T00:54:04;45.72;;;33.40;;
45684;SDS011;46836;48.388;16.210;2022-10-16T00:56:36;47.53;;;32.88;;
45684;SDS011;46836;48.388;16.210;2022-10-16T00:59:04;47.33;;;33.63;;
45684;SDS011;46836;48.388;16.210;2022-10-16T01:01:40;47.78;;;33.78;;
45684;SDS011;46836;48.388;16.210;2022-10-16T01:04:07;45.80;;;32.83;;
45684;SDS011;46836;48.388;16.210;2022-10-16T01:09:12;48.65;;;33.28;;
45684;SDS011;46836;48.388;16.210;2022-10-16T01:14:51;47.35;;;33.90;;
45684;SDS011;46836;48.388;16.210;2022-10-16T01:17:28;46.70;;;33.13;;
45684;SDS011;46836;48.388;16.210;2022-10-16T01:20:16;52.30;;;34.53;;
45684;SDS011;46836;48.388;16.210;2022-10-16T01:23:04;52.10;;;33.88;;
45684;SDS011;46836;48.388;16.210;2022-10-16T01:25:43;47.60;;;34.03;;
45684;SDS011;46836;48.388;16.210;2022-10-16T01:28:32;55.63;;;35.35;;
45684;SDS011;46836;48.388;16.210;2022-10-16T01:31:06;52.83;;;36.00;;
45684;SDS011;46836;48.388;16.210;2022-10-16T01:33:42;53.90;;;34.72;;
45684;SDS011;46836;48.388;16.210;2022-10-16T01:36:14;51.63;;;34.50;;
45684;SDS011;46836;48.388;16.210;2022-10-16T01:38:46;51.50;;;33.78;;
45684;SDS011;46836;48.388;16.210;2022-10-16T01:41:19;49.17;;;34.35;;
45684;SDS011;46836;48.388;16.210;2022-10-16T01:44:16;50.15;;;35.78;;
45684;SDS011;46836;48.388;16.210;2022-10-16T01:46:47;47.25;;;35.05;;
45684;SDS011;46836;48.388;16.210;2022-10-16T01:49:17;52.80;;;36.80;;
45684;SDS011;46836;48.388;16.210;2022-10-16T01:51:47;50.70;;;34.35;;
45684;SDS011;46836;48.388;16.210;2022-10-16T01:54:18;54.95;;;36.35;;
45684;SDS011;46836;48.388;16.210;2022-10-16T01:56:47;53.35;;;35.33;;
45684;SDS011;46836;48.388;16.210;2022-10-16T01:59:18;60.50;;;36.72;;
45684;SDS011;46836;48.388;16.210;2022-10-16T02:01:48;53.50;;;35.80;;
45684;SDS011;46836;48.388;16.210;2022-10-16T02:04:23;55.10;;;35.97;;
45684;SDS011;46836;48.388;16.210;2022-10-16T02:06:54;56.80;;;37.60;;
45684;SDS011;46836;48.388;16.210;2022-10-16T02:09:21;53.35;;;35.03;;
45684;SDS011;46836;48.388;16.210;2022-10-16T02:11:48;52.58;;;36.42;;
45684;SDS011;46836;48.388;16.210;2022-10-16T02:14:19;57.75;;;36.47;;
45684;SDS011;46836;48.388;16.210;2022-10-16T02:16:48;62.75;;;37.45;;
45684;SDS011;46836;48.388;16.210;2022-10-16T02:19:15;53.75;;;35.25;;
45684;SDS011;46836;48.388;16.210;2022-10-16T02:21:50;55.60;;;37.70;;
45684;SDS011;46836;48.388;16.210;2022-10-16T02:25:06;53.58;;;36.70;;
45684;SDS011;46836;48.388;16.210;2022-10-16T02:27:49;54.35;;;37.65;;
45684;SDS011;46836;48.388;16.210;2022-10-16T02:33:11;52.35;;;34.22;;
45684;SDS011;46836;48.388;16.210;2022-10-16T02:35:40;58.08;;;37.58;;
45684;SDS011;46836;48.388;16.210;2022-10-16T02:38:09;62.70;;;37.65;;
45684;SDS011;46836;48.388;16.210;2022-10-16T02:40:37;55.83;;;36.35;;
45684;SDS011;46836;48.388;16.210;2022-10-16T02:43:05;56.25;;;37.00;;
45684;SDS011;46836;48.388;16.210;2022-10-16T02:45:32;52.38;;;36.03;;
45684;SDS011;46836;48.388;16.210;2022-10-16T02:47:59;54.50;;;35.13;;
45684;SDS011;46836;48.388;16.210;2022-10-16T02:50:26;57.47;;;34.45;;
45684;SDS011;46836;48.388;16.210;2022-10-16T02:52:53;52.92;;;35.92;;
45684;SDS011;46836;48.388;16.210;2022-10-16T02:55:20;52.65;;;34.42;;
45684;SDS011;46836;48.388;16.210;2022-10-16T02:57:47;59.38;;;36.72;;
45684;SDS011;46836;48.388;16.210;2022-10-16T03:00:15;52.42;;;36.55;;
45684;SDS011;46836;48.388;16.210;2022-10-16T03:02:44;58.72;;;34.75;;
45684;SDS011;46836;48.388;16.210;2022-10-16T03:05:11;50.97;;;35.25;;
45684;SDS011;46836;48.388;16.210;2022-10-16T03:07:38;55.65;;;36.47;;
45684;SDS011;46836;48.388;16.210;2022-10-16T03:10:06;47.30;;;31.98;;
45684;SDS011;46836;48.388;16.210;2022-10-16T03:12:33;51.25;;;35.15;;
45684;SDS011;46836;48.388;16.210;2022-10-16T03:15:00;53.85;;;36.80;;
45684;SDS011;46836;48.388;16.210;2022-10-16T03:17:27;52.88;;;36.80;;
45684;SDS011;46836;48.388;16.210;2022-10-16T03:19:55;57.80;;;35.72;;
45684;SDS011;46836;48.388;16.210;2022-10-16T03:22:22;52.83;;;36.70;;
45684;SDS011;46836;48.388;16.210;2022-10-16T03:24:49;50.17;;;33.75;;
45684;SDS011;46836;48.388;16.210;2022-10-16T03:27:16;51.10;;;33.03;;
45684;SDS011;46836;48.388;16.210;2022-10-16T03:29:43;56.03;;;36.53;;
45684;SDS011;46836;48.388;16.210;2022-10-16T03:32:10;49.65;;;34.72;;
45684;SDS011;46836;48.388;16.210;2022-10-16T03:34:37;53.28;;;36.67;;
45684;SDS011;46836;48.388;16.210;2022-10-16T03:37:03;48.60;;;33.00;;
45684;SDS011;46836;48.388;16.210;2022-10-16T03:39:30;47.63;;;34.55;;
45684;SDS011;46836;48.388;16.210;2022-10-16T03:41:57;51.47;;;34.38;;
45684;SDS011;46836;48.388;16.210;2022-10-16T03:44:25;47.83;;;33.42;;
45684;SDS011;46836;48.388;16.210;2022-10-16T03:46:51;47.88;;;31.85;;
45684;SDS011;46836;48.388;16.210;2022-10-16T03:49:18;55.25;;;35.67;;
45684;SDS011;46836;48.388;16.210;2022-10-16T03:51:45;44.92;;;33.22;;
45684;SDS011;46836;48.388;16.210;2022-10-16T03:54:12;51.58;;;33.90;;
45684;SDS011;46836;48.388;16.210;2022-10-16T03:56:39;48.95;;;32.83;;
45684;SDS011;46836;48.388;16.210;2022-10-16T03:59:06;48.53;;;32.33;;
45684;SDS011;46836;48.388;16.210;2022-10-16T04:01:33;49.45;;;33.17;;
45684;SDS011;46836;48.388;16.210;2022-10-16T04:04:01;43.38;;;31.35;;
45684;SDS011;46836;48.388;16.210;2022-10-16T04:06:28;47.60;;;33.85;;
45684;SDS011;46836;48.388;16.210;2022-10-16T04:08:55;39.40;;;30.80;;
45684;SDS011;46836;48.388;16.210;2022-10-16T04:11:22;49.05;;;32.38;;
45684;SDS011;46836;48.388;16.210;2022-10-16T04:13:49;50.72;;;33.67;;
45684;SDS011;46836;48.388;16.210;2022-10-16T04:16:16;54.58;;;32.47;;
45684;SDS011;46836;48.388;16.210;2022-10-16T04:18:43;45.60;;;32.95;;
45684;SDS011;46836;48.388;16.210;2022-10-16T04:21:10;51.67;;;32.97;;
45684;SDS011;46836;48.388;16.210;2022-10-16T04:23:37;49.30;;;32.67;;
45684;SDS011;46836;48.388;16.210;2022-10-16T04:26:04;53.33;;;35.00;;
45684;SDS011;46836;48.388;16.210;2022-10-16T04:28:31;52.80;;;35.08;;
45684;SDS011;46836;48.388;16.210;2022-10-16T04:30:58;54.55;;;34.58;;
45684;SDS011;46836;48.388;16.210;2022-10-16T04:33:25;55.67;;;35.00;;
45684;SDS011;46836;48.388;16.210;2022-10-16T04:35:56;56.22;;;34.88;;
45684;SDS011;46836;48.388;16.210;2022-10-16T04:38:27;60.63;;;37.33;;
45684;SDS011;46836;48.388;16.210;2022-10-16T04:40:54;52.30;;;36.15;;
45684;SDS011;46836;48.388;16.210;2022-10-16T04:43:21;51.85;;;34.75;;
45684;SDS011;46836;48.388;16.210;2022-10-16T04:45:49;56.40;;;35.55;;
45684;SDS011;46836;48.388;16.210;2022-10-16T04:48:19;57.95;;;36.42;;
45684;SDS011;46836;48.388;16.210;2022-10-16T04:50:46;56.47;;;35.55;;
45684;SDS011;46836;48.388;16.210;2022-10-16T04:53:20;51.97;;;33.58;;
45684;SDS011;46836;48.388;16.210;2022-10-16T04:55:48;54.45;;;34.70;;
45684;SDS011;46836;48.388;16.210;2022-10-16T04:58:17;52.97;;;34.40;;
45684;SDS011;46836;48.388;16.210;2022-10-16T05:00:44;57.75;;;33.30;;
45684;SDS011;46836;48.388;16.210;2022-10-16T05:03:12;48.30;;;34.72;;
45684;SDS011;46836;48.388;16.210;2022-10-16T05:05:43;49.85;;;35.55;;
45684;SDS011;46836;48.388;16.210;2022-10-16T05:08:15;51.75;;;34.67;;
45684;SDS011;46836;48.388;16.210;2022-10-16T05:10:42;56.15;;;33.35;;
45684;SDS011;46836;48.388;16.210;2022-10-16T05:13:11;46.60;;;31.60;;
45684;SDS011;46836;48.388;16.210;2022-10-16T05:15:38;45.60;;;30.80;;
45684;SDS011;46836;48.388;16.210;2022-10-16T05:18:06;45.83;;;29.70;;
45684;SDS011;46836;48.388;16.210;2022-10-16T05:20:34;40.38;;;28.08;;
45684;SDS011;46836;48.388;16.210;2022-10-16T05:23:01;44.33;;;28.35;;
45684;SDS011;46836;48.388;16.210;2022-10-16T05:25:28;41.17;;;27.80;;
45684;SDS011;46836;48.388;16.210;2022-10-16T05:27:55;45.25;;;27.75;;
45684;SDS011;46836;48.388;16.210;2022-10-16T05:30:22;39.17;;;25.55;;
45684;SDS011;46836;48.388;16.210;2022-10-16T05:32:50;34.80;;;25.48;;
45684;SDS011;46836;48.388;16.210;2022-10-16T05:35:18;41.45;;;25.90;;
45684;SDS011;46836;48.388;16.210;2022-10-16T05:37:46;43.03;;;26.27;;
45684;SDS011;46836;48.388;16.210;2022-10-16T05:40:13;38.88;;;25.30;;
45684;SDS011;46836;48.388;16.210;2022-10-16T05:42:41;32.83;;;22.75;;
45684;SDS011;46836;48.388;16.210;2022-10-16T05:45:09;33.53;;;23.40;;
45684;SDS011;46836;48.388;16.210;2022-10-16T05:47:37;38.35;;;25.33;;
45684;SDS011;46836;48.388;16.210;2022-10-16T05:50:05;41.33;;;25.60;;
45684;SDS011;46836;48.388;16.210;2022-10-16T05:52:32;33.47;;;23.92;;
45684;SDS011;46836;48.388;16.210;2022-10-16T05:55:02;39.88;;;25.95;;
45684;SDS011;46836;48.388;16.210;2022-10-16T05:57:30;38.13;;;25.17;;
45684;SDS011;46836;48.388;16.210;2022-10-16T05:59:57;37.67;;;23.52;;
45684;SDS011;46836;48.388;16.210;2022-10-16T06:02:24;44.00;;;26.90;;
45684;SDS011;46836;48.388;16.210;2022-10-16T06:04:51;40.03;;;25.45;;
45684;SDS011;46836;48.388;16.210;2022-10-16T06:07:22;45.80;;;29.70;;
45684;SDS011;46836;48.388;16.210;2022-10-16T06:09:50;47.20;;;31.50;;
45684;SDS011;46836;48.388;16.210;2022-10-16T06:12:18;46.47;;;31.92;;
45684;SDS011;46836;48.388;16.210;2022-10-16T06:14:46;48.75;;;33.22;;
45684;SDS011;46836;48.388;16.210;2022-10-16T06:17:14;45.75;;;30.35;;
45684;SDS011;46836;48.388;16.210;2022-10-16T06:19:41;49.45;;;31.80;;
45684;SDS011;46836;48.388;16.210;2022-10-16T06:22:08;45.95;;;31.55;;
45684;SDS011;46836;48.388;16.210;2022-10-16T06:24:35;41.58;;;29.00;;
45684;SDS011;46836;48.388;16.210;2022-10-16T06:27:03;40.25;;;28.23;;
45684;SDS011;46836;48.388;16.210;2022-10-16T06:29:31;45.25;;;29.10;;
45684;SDS011;46836;48.388;16.210;2022-10-16T06:31:58;40.63;;;29.30;;
45684;SDS011;46836;48.388;16.210;2022-10-16T06:34:25;40.58;;;28.85;;
45684;SDS011;46836;48.388;16.210;2022-10-16T06:36:52;43.15;;;29.42;;
45684;SDS011;46836;48.388;16.210;2022-10-16T06:39:19;45.60;;;30.83;;
45684;SDS011;46836;48.388;16.210;2022-10-16T06:41:46;39.47;;;28.35;;
45684;SDS011;46836;48.388;16.210;2022-10-16T06:44:14;42.05;;;30.58;;
45684;SDS011;46836;48.388;16.210;2022-10-16T06:46:41;43.95;;;31.13;;
45684;SDS011;46836;48.388;16.210;2022-10-16T06:49:08;40.47;;;28.88;;
45684;SDS011;46836;48.388;16.210;2022-10-16T06:51:35;44.13;;;30.70;;
45684;SDS011;46836;48.388;16.210;2022-10-16T06:54:08;46.90;;;30.10;;
45684;SDS011;46836;48.388;16.210;2022-10-16T06:56:35;46.10;;;31.02;;
45684;SDS011;46836;48.388;16.210;2022-10-16T06:59:03;48.83;;;29.58;;
45684;SDS011;46836;48.388;16.210;2022-10-16T07:01:30;45.75;;;29.98;;
45684;SDS011;46836;48.388;16.210;2022-10-16T07:03:57;49.50;;;33.63;;
45684;SDS011;46836;48.388;16.210;2022-10-16T07:06:25;50.97;;;30.05;;
45684;SDS011;46836;48.388;16.210;2022-10-16T07:08:53;45.95;;;28.20;;
45684;SDS011;46836;48.388;16.210;2022-10-16T07:11:21;49.80;;;28.83;;
45684;SDS011;46836;48.388;16.210;2022-10-16T07:13:50;59.22;;;29.55;;
45684;SDS011;46836;48.388;16.210;2022-10-16T07:16:24;46.47;;;29.90;;
45684;SDS011;46836;48.388;16.210;2022-10-16T07:18:54;54.67;;;33.05;;
45684;SDS011;46836;48.388;16.210;2022-10-16T07:21:27;52.80;;;31.38;;
45684;SDS011;46836;48.388;16.210;2022-10-16T07:24:03;49.75;;;31.17;;
45684;SDS011;46836;48.388;16.210;2022-10-16T07:26:33;55.63;;;30.13;;
45684;SDS011;46836;48.388;16.210;2022-10-16T07:29:02;63.92;;;34.20;;
45684;SDS011;46836;48.388;16.210;2022-10-16T07:31:31;65.93;;;33.30;;
45684;SDS011;46836;48.388;16.210;2022-10-16T07:33:59;69.20;;;33.40;;
45684;SDS011;46836;48.388;16.210;2022-10-16T07:36:26;66.40;;;34.10;;
45684;SDS011;46836;48.388;16.210;2022-10-16T07:38:54;61.10;;;34.45;;
45684;SDS011;46836;48.388;16.210;2022-10-16T07:41:25;52.72;;;30.88;;
45684;SDS011;46836;48.388;16.210;2022-10-16T07:43:52;53.92;;;31.17;;
45684;SDS011;46836;48.388;16.210;2022-10-16T07:46:21;59.80;;;30.80;;
45684;SDS011;46836;48.388;16.210;2022-10-16T07:48:49;65.40;;;32.38;;
45684;SDS011;46836;48.388;16.210;2022-10-16T07:51:19;53.20;;;31.70;;
45684;SDS011;46836;48.388;16.210;2022-10-16T07:53:48;52.85;;;31.10;;
45684;SDS011;46836;48.388;16.210;2022-10-16T07:56:16;55.40;;;32.45;;
45684;SDS011;46836;48.388;16.210;2022-10-16T07:58:44;58.85;;;33.58;;
45684;SDS011;46836;48.388;16.210;2022-10-16T08:01:12;70.25;;;38.35;;
45684;SDS011;46836;48.388;16.210;2022-10-16T08:03:42;58.78;;;33.60;;
45684;SDS011;46836;48.388;16.210;2022-10-16T08:06:10;64.60;;;34.42;;
45684;SDS011;46836;48.388;16.210;2022-10-16T08:08:37;63.72;;;34.30;;
45684;SDS011;46836;48.388;16.210;2022-10-16T08:11:04;61.38;;;33.50;;
45684;SDS011;46836;48.388;16.210;2022-10-16T08:13:32;56.97;;;33.95;;
45684;SDS011;46836;48.388;16.210;2022-10-16T08:15:59;59.20;;;32.58;;
45684;SDS011;46836;48.388;16.210;2022-10-16T08:18:26;60.30;;;32.80;;
45684;SDS011;46836;48.388;16.210;2022-10-16T08:20:58;65.05;;;33.85;;
45684;SDS011;46836;48.388;16.210;2022-10-16T08:23:26;55.45;;;31.58;;
45684;SDS011;46836;48.388;16.210;2022-10-16T08:25:55;63.85;;;34.65;;
45684;SDS011;46836;48.388;16.210;2022-10-16T08:28:27;61.95;;;34.08;;
45684;SDS011;46836;48.388;16.210;2022-10-16T08:30:54;67.97;;;34.65;;
45684;SDS011;46836;48.388;16.210;2022-10-16T08:33:23;64.45;;;36.05;;
45684;SDS011;46836;48.388;16.210;2022-10-16T08:35:50;60.42;;;35.40;;
45684;SDS011;46836;48.388;16.210;2022-10-16T08:38:20;59.63;;;34.13;;
45684;SDS011;46836;48.388;16.210;2022-10-16T08:40:47;74.10;;;37.15;;
45684;SDS011;46836;48.388;16.210;2022-10-16T08:48:47;57.92;;;35.28;;
45684;SDS011;46836;48.388;16.210;2022-10-16T08:51:29;58.38;;;34.28;;
45684;SDS011;46836;48.388;16.210;2022-10-16T08:53:58;64.35;;;33.65;;
45684;SDS011;46836;48.388;16.210;2022-10-16T08:56:32;67.40;;;34.28;;
45684;SDS011;46836;48.388;16.210;2022-10-16T08:59:00;62.08;;;34.92;;
45684;SDS011;46836;48.388;16.210;2022-10-16T09:01:41;54.85;;;33.10;;
45684;SDS011;46836;48.388;16.210;2022-10-16T09:07:02;57.03;;;33.05;;
45684;SDS011;46836;48.388;16.210;2022-10-16T09:12:09;59.33;;;34.53;;
45684;SDS011;46836;48.388;16.210;2022-10-16T09:15:03;60.43;;;35.80;;
45684;SDS011;46836;48.388;16.210;2022-10-16T09:22:49;54.60;;;33.00;;
45684;SDS011;46836;48.388;16.210;2022-10-16T09:25:36;59.85;;;33.50;;
45684;SDS011;46836;48.388;16.210;2022-10-16T09:28:07;55.27;;;31.97;;
45684;SDS011;46836;48.388;16.210;2022-10-16T09:30:36;58.67;;;35.37;;
45684;SDS011;46836;48.388;16.210;2022-10-16T09:33:06;53.50;;;33.37;;
45684;SDS011;46836;48.388;16.210;2022-10-16T09:35:43;52.23;;;32.63;;
45684;SDS011;46836;48.388;16.210;2022-10-16T09:41:01;58.43;;;34.30;;
45684;SDS011;46836;48.388;16.210;2022-10-16T09:43:47;58.13;;;35.00;;
45684;SDS011;46836;48.388;16.210;2022-10-16T09:46:22;56.30;;;33.97;;
45684;SDS011;46836;48.388;16.210;2022-10-16T09:48:57;55.80;;;33.50;;
45684;SDS011;46836;48.388;16.210;2022-10-16T09:51:33;54.20;;;33.90;;
45684;SDS011;46836;48.388;16.210;2022-10-16T09:56:35;55.70;;;32.80;;
45684;SDS011;46836;48.388;16.210;2022-10-16T09:59:10;56.83;;;33.57;;
45684;SDS011;46836;48.388;16.210;2022-10-16T10:01:43;54.70;;;33.83;;
45684;SDS011;46836;48.388;16.210;2022-10-16T10:04:12;53.13;;;33.20;;
45684;SDS011;46836;48.388;16.210;2022-10-16T10:06:44;60.20;;;35.73;;
45684;SDS011;46836;48.388;16.210;2022-10-16T10:09:23;58.43;;;35.40;;
45684;SDS011;46836;48.388;16.210;2022-10-16T10:12:02;62.07;;;34.93;;
45684;SDS011;46836;48.388;16.210;2022-10-16T10:14:34;57.23;;;36.60;;
45684;SDS011;46836;48.388;16.210;2022-10-16T10:17:15;59.83;;;35.90;;
45684;SDS011;46836;48.388;16.210;2022-10-16T10:19:54;58.07;;;34.37;;
45684;SDS011;46836;48.388;16.210;2022-10-16T10:25:14;55.50;;;36.10;;
45684;SDS011;46836;48.388;16.210;2022-10-16T10:31:06;51.60;;;33.37;;
45684;SDS011;46836;48.388;16.210;2022-10-16T10:36:38;50.53;;;34.30;;
45684;SDS011;46836;48.388;16.210;2022-10-16T10:39:27;52.40;;;33.13;;
45684;SDS011;46836;48.388;16.210;2022-10-16T10:45:27;47.83;;;30.93;;
45684;SDS011;46836;48.388;16.210;2022-10-16T10:48:20;45.27;;;29.97;;
45684;SDS011;46836;48.388;16.210;2022-10-16T10:51:15;42.70;;;31.07;;
45684;SDS011;46836;48.388;16.210;2022-10-16T11:04:30;44.97;;;31.43;;
45684;SDS011;46836;48.388;16.210;2022-10-16T11:07:30;43.03;;;31.23;;
45684;SDS011;46836;48.388;16.210;2022-10-16T11:10:20;47.40;;;32.23;;
45684;SDS011;46836;48.388;16.210;2022-10-16T11:13:45;41.40;;;29.57;;
45684;SDS011;46836;48.388;16.210;2022-10-16T11:15:51;44.50;;;31.40;;
45684;SDS011;46836;48.388;16.210;2022-10-16T11:19:27;47.60;;;31.97;;
45684;SDS011;46836;48.388;16.210;2022-10-16T11:21:56;45.57;;;31.67;;
45684;SDS011;46836;48.388;16.210;2022-10-16T11:24:51;46.57;;;31.20;;
45684;SDS011;46836;48.388;16.210;2022-10-16T11:27:40;48.90;;;32.80;;
45684;SDS011;46836;48.388;16.210;2022-10-16T11:30:28;46.87;;;33.30;;
45684;SDS011;46836;48.388;16.210;2022-10-16T11:33:04;45.33;;;29.93;;
45684;SDS011;46836;48.388;16.210;2022-10-16T11:35:39;40.10;;;29.57;;
45684;SDS011;46836;48.388;16.210;2022-10-16T11:38:14;41.97;;;31.73;;
45684;SDS011;46836;48.388;16.210;2022-10-16T11:40:50;44.30;;;29.50;;
45684;SDS011;46836;48.388;16.210;2022-10-16T11:43:22;42.97;;;30.80;;
45684;SDS011;46836;48.388;16.210;2022-10-16T11:46:04;40.27;;;29.27;;
45684;SDS011;46836;48.388;16.210;2022-10-16T11:49:08;37.13;;;28.70;;
45684;SDS011;46836;48.388;16.210;2022-10-16T11:57:29;39.23;;;27.90;;
45684;SDS011;46836;48.388;16.210;2022-10-16T12:00:05;41.93;;;28.00;;
45684;SDS011;46836;48.388;16.210;2022-10-16T12:02:44;38.17;;;27.80;;
45684;SDS011;46836;48.388;16.210;2022-10-16T12:08:13;35.43;;;28.10;;
45684;SDS011;46836;48.388;16.210;2022-10-16T12:10:43;37.53;;;28.70;;
45684;SDS011;46836;48.388;16.210;2022-10-16T12:16:06;39.07;;;29.63;;
45684;SDS011;46836;48.388;16.210;2022-10-16T12:18:41;39.50;;;29.83;;
45684;SDS011;46836;48.388;16.210;2022-10-16T12:21:12;43.70;;;29.40;;
45684;SDS011;46836;48.388;16.210;2022-10-16T12:23:51;39.40;;;30.50;;
45684;SDS011;46836;48.388;16.210;2022-10-16T12:26:24;39.80;;;29.20;;
45684;SDS011;46836;48.388;16.210;2022-10-16T12:29:10;40.20;;;29.80;;
45684;SDS011;46836;48.388;16.210;2022-10-16T12:31:58;38.40;;;29.40;;
45684;SDS011;46836;48.388;16.210;2022-10-16T12:39:48;39.23;;;28.93;;
45684;SDS011;46836;48.388;16.210;2022-10-16T12:44:54;39.17;;;27.40;;
45684;SDS011;46836;48.388;16.210;2022-10-16T12:47:23;37.70;;;29.17;;
45684;SDS011;46836;48.388;16.210;2022-10-16T12:49:56;35.50;;;28.87;;
45684;SDS011;46836;48.388;16.210;2022-10-16T12:55:03;36.40;;;29.60;;
45684;SDS011;46836;48.388;16.210;2022-10-16T13:00:42;34.93;;;26.00;;
45684;SDS011;46836;48.388;16.210;2022-10-16T13:09:19;37.87;;;28.50;;
45684;SDS011;46836;48.388;16.210;2022-10-16T13:20:01;36.50;;;26.60;;
45684;SDS011;46836;48.388;16.210;2022-10-16T13:28:22;34.50;;;27.83;;
45684;SDS011;46836;48.388;16.210;2022-10-16T13:30:57;39.17;;;29.60;;
45684;SDS011;46836;48.388;16.210;2022-10-16T13:36:01;34.20;;;26.00;;
45684;SDS011;46836;48.388;16.210;2022-10-16T13:38:31;37.67;;;28.87;;
45684;SDS011;46836;48.388;16.210;2022-10-16T13:41:03;35.00;;;26.53;;
45684;SDS011;46836;48.388;16.210;2022-10-16T13:43:33;33.87;;;26.67;;
45684;SDS011;46836;48.388;16.210;2022-10-16T13:46:05;40.40;;;28.73;;
45684;SDS011;46836;48.388;16.210;2022-10-16T13:48:42;36.30;;;26.70;;
45684;SDS011;46836;48.388;16.210;2022-10-16T13:51:14;35.10;;;27.60;;
45684;SDS011;46836;48.388;16.210;2022-10-16T13:53:43;36.90;;;28.57;;
45684;SDS011;46836;48.388;16.210;2022-10-16T13:56:15;36.07;;;27.30;;
45684;SDS011;46836;48.388;16.210;2022-10-16T13:58:44;36.23;;;26.50;;
45684;SDS011;46836;48.388;16.210;2022-10-16T14:01:23;39.27;;;27.70;;
45684;SDS011;46836;48.388;16.210;2022-10-16T14:04:04;36.50;;;27.30;;
45684;SDS011;46836;48.388;16.210;2022-10-16T14:06:34;31.40;;;26.20;;
45684;SDS011;46836;48.388;16.210;2022-10-16T14:09:36;34.40;;;26.83;;
45684;SDS011;46836;48.388;16.210;2022-10-16T14:12:02;33.93;;;26.50;;
45684;SDS011;46836;48.388;16.210;2022-10-16T14:14:38;38.53;;;29.10;;
45684;SDS011;46836;48.388;16.210;2022-10-16T14:17:16;38.60;;;27.57;;
45684;SDS011;46836;48.388;16.210;2022-10-16T14:19:54;36.47;;;28.40;;
45684;SDS011;46836;48.388;16.210;2022-10-16T14:22:38;36.30;;;28.00;;
45684;SDS011;46836;48.388;16.210;2022-10-16T14:27:56;35.23;;;28.10;;
45684;SDS011;46836;48.388;16.210;2022-10-16T14:30:28;33.90;;;26.50;;
45684;SDS011;46836;48.388;16.210;2022-10-16T14:33:03;36.00;;;28.07;;
45684;SDS011;46836;48.388;16.210;2022-10-16T14:35:33;33.60;;;27.13;;
45684;SDS011;46836;48.388;16.210;2022-10-16T14:38:03;35.07;;;26.20;;
45684;SDS011;46836;48.388;16.210;2022-10-16T14:40:32;34.80;;;26.30;;
45684;SDS011;46836;48.388;16.210;2022-10-16T14:43:02;36.17;;;25.57;;
45684;SDS011;46836;48.388;16.210;2022-10-16T14:45:31;38.20;;;28.97;;
45684;SDS011;46836;48.388;16.210;2022-10-16T14:48:12;33.93;;;26.93;;
45684;SDS011;46836;48.388;16.210;2022-10-16T14:50:45;32.07;;;24.80;;
45684;SDS011;46836;48.388;16.210;2022-10-16T14:53:12;36.60;;;26.30;;
45684;SDS011;46836;48.388;16.210;2022-10-16T14:55:40;32.97;;;26.10;;
45684;SDS011;46836;48.388;16.210;2022-10-16T15:00:42;31.50;;;25.10;;
45684;SDS011;46836;48.388;16.210;2022-10-16T15:03:09;31.10;;;23.03;;
45684;SDS011;46836;48.388;16.210;2022-10-16T15:05:36;31.60;;;24.50;;
45684;SDS011;46836;48.388;16.210;2022-10-16T15:08:03;31.10;;;24.80;;
45684;SDS011;46836;48.388;16.210;2022-10-16T15:10:31;30.30;;;23.60;;
45684;SDS011;46836;48.388;16.210;2022-10-16T15:13:03;31.30;;;24.70;;
45684;SDS011;46836;48.388;16.210;2022-10-16T15:17:57;30.47;;;23.90;;
45684;SDS011;46836;48.388;16.210;2022-10-16T15:20:27;29.63;;;22.80;;
45684;SDS011;46836;48.388;16.210;2022-10-16T15:22:57;37.93;;;23.10;;
45684;SDS011;46836;48.388;16.210;2022-10-16T15:28:14;28.97;;;23.53;;
45684;SDS011;46836;48.388;16.210;2022-10-16T15:30:41;27.33;;;21.77;;
45684;SDS011;46836;48.388;16.210;2022-10-16T15:33:14;30.73;;;22.37;;
45684;SDS011;46836;48.388;16.210;2022-10-16T15:35:45;30.53;;;23.57;;
45684;SDS011;46836;48.388;16.210;2022-10-16T15:38:15;29.60;;;24.07;;
45684;SDS011;46836;48.388;16.210;2022-10-16T15:40:45;29.37;;;22.60;;
45684;SDS011;46836;48.388;16.210;2022-10-16T15:43:13;39.37;;;23.43;;
45684;SDS011;46836;48.388;16.210;2022-10-16T15:45:40;31.30;;;22.53;;
45684;SDS011;46836;48.388;16.210;2022-10-16T15:48:11;26.70;;;21.97;;
45684;SDS011;46836;48.388;16.210;2022-10-16T15:50:40;30.63;;;21.97;;
45684;SDS011;46836;48.388;16.210;2022-10-16T15:53:07;27.57;;;22.67;;
45684;SDS011;46836;48.388;16.210;2022-10-16T15:55:35;29.53;;;22.50;;
45684;SDS011;46836;48.388;16.210;2022-10-16T15:58:04;31.17;;;24.67;;
45684;SDS011;46836;48.388;16.210;2022-10-16T16:00:31;30.10;;;23.10;;
45684;SDS011;46836;48.388;16.210;2022-10-16T16:02:59;30.37;;;23.23;;
45684;SDS011;46836;48.388;16.210;2022-10-16T16:05:26;29.97;;;21.50;;
45684;SDS011;46836;48.388;16.210;2022-10-16T16:07:53;32.20;;;23.63;;
45684;SDS011;46836;48.388;16.210;2022-10-16T16:10:20;31.47;;;23.57;;
45684;SDS011;46836;48.388;16.210;2022-10-16T16:12:48;34.77;;;23.57;;
45684;SDS011;46836;48.388;16.210;2022-10-16T16:15:19;26.87;;;20.67;;
45684;SDS011;46836;48.388;16.210;2022-10-16T16:17:48;26.10;;;20.60;;
45684;SDS011;46836;48.388;16.210;2022-10-16T16:20:15;28.93;;;21.40;;
45684;SDS011;46836;48.388;16.210;2022-10-16T16:22:43;28.63;;;21.47;;
45684;SDS011;46836;48.388;16.210;2022-10-16T16:25:10;28.73;;;22.80;;
45684;SDS011;46836;48.388;16.210;2022-10-16T16:27:37;29.27;;;22.57;;
45684;SDS011;46836;48.388;16.210;2022-10-16T16:30:05;30.17;;;23.50;;